createdAt,value
2017-12-11T00:00:13.568Z,2.15
2017-12-11T00:02:26.388Z,2.29
2017-12-11T00:03:06.955Z,2.14
2017-12-11T00:03:47.583Z,2.22
2017-12-11T00:04:28.196Z,2.25
2017-12-11T00:05:08.767Z,2.25
2017-12-11T00:05:49.362Z,2.26
2017-12-11T00:06:29.963Z,2.22
2017-12-11T00:07:10.555Z,2.2
2017-12-11T00:07:51.143Z,2.17
2017-12-11T00:08:31.742Z,2.15
2017-12-11T00:09:12.338Z,2.22
2017-12-11T00:09:52.915Z,2.24
2017-12-11T00:10:33.468Z,2.26
2017-12-11T00:11:14.021Z,2.24
2017-12-11T00:11:54.595Z,2.32
2017-12-11T00:12:35.157Z,2.24
2017-12-11T00:13:15.730Z,2.32
2017-12-11T00:13:56.313Z,2.32
2017-12-11T00:14:36.901Z,2.33
2017-12-11T00:15:17.526Z,2.25
2017-12-11T00:15:58.106Z,2.33
2017-12-11T00:16:38.692Z,2.28
2017-12-11T00:17:19.323Z,2.25
2017-12-11T00:17:59.905Z,2.33
2017-12-11T00:18:40.500Z,2.26
2017-12-11T00:19:21.110Z,2.31
2017-12-11T00:20:01.664Z,2.36
2017-12-11T00:20:42.294Z,2.32
2017-12-11T00:21:22.883Z,2.29
2017-12-11T00:22:03.468Z,2.33
2017-12-11T00:22:44.065Z,2.29
2017-12-11T00:23:24.626Z,2.33
2017-12-11T00:24:05.185Z,2.33
2017-12-11T00:24:45.742Z,2.38
2017-12-11T00:25:26.362Z,2.35
2017-12-11T00:26:06.954Z,2.36
2017-12-11T00:26:47.560Z,2.33
2017-12-11T00:27:28.166Z,2.39
2017-12-11T00:28:08.766Z,2.32
2017-12-11T00:28:49.371Z,2.33
2017-12-11T00:29:29.930Z,2.33
2017-12-11T00:30:10.529Z,2.35
2017-12-11T00:30:51.104Z,2.44
2017-12-11T00:31:31.687Z,2.36
2017-12-11T00:32:12.248Z,2.33
2017-12-11T00:32:52.823Z,2.44
2017-12-11T00:33:33.397Z,2.43
2017-12-11T00:34:13.951Z,2.38
2017-12-11T00:34:54.545Z,2.44
2017-12-11T00:35:35.133Z,2.39
2017-12-11T00:36:15.730Z,2.36
2017-12-11T00:36:56.324Z,2.38
2017-12-11T00:37:36.905Z,2.42
2017-12-11T00:38:17.478Z,2.44
2017-12-11T00:38:58.053Z,2.5
2017-12-11T00:39:38.636Z,2.43
2017-12-11T00:40:19.213Z,2.47
2017-12-11T00:40:59.790Z,2.44
2017-12-11T00:41:40.364Z,2.43
2017-12-11T00:42:20.938Z,2.43
2017-12-11T00:43:01.524Z,2.57
2017-12-11T00:43:42.109Z,2.57
2017-12-11T00:44:22.675Z,2.51
2017-12-11T00:45:03.262Z,2.54
2017-12-11T00:45:43.833Z,2.49
2017-12-11T00:46:24.428Z,2.53
2017-12-11T00:47:05.024Z,2.54
2017-12-11T00:47:45.625Z,2.47
2017-12-11T00:48:26.189Z,2.5
2017-12-11T00:49:06.835Z,2.6
2017-12-11T00:49:47.429Z,2.57
2017-12-11T00:50:27.996Z,2.6
2017-12-11T00:51:08.560Z,2.57
2017-12-11T00:51:49.159Z,2.49
2017-12-11T00:52:29.762Z,2.53
2017-12-11T00:53:10.353Z,2.56
2017-12-11T00:53:50.926Z,2.61
2017-12-11T00:54:31.524Z,2.69
2017-12-11T00:55:12.107Z,2.61
2017-12-11T00:55:52.679Z,2.61
2017-12-11T00:56:33.258Z,2.61
2017-12-11T00:57:13.838Z,2.61
2017-12-11T00:57:54.401Z,2.6
2017-12-11T00:58:34.974Z,2.62
2017-12-11T00:59:15.573Z,2.62
2017-12-11T00:59:56.166Z,2.67
2017-12-11T01:00:36.742Z,2.62
2017-12-11T01:01:17.304Z,2.62
2017-12-11T01:01:57.892Z,2.65
2017-12-11T01:02:38.488Z,2.68
2017-12-11T01:03:19.123Z,2.74
2017-12-11T01:03:59.734Z,2.64
2017-12-11T01:04:40.290Z,2.65
2017-12-11T01:05:20.870Z,2.6
2017-12-11T01:06:01.434Z,2.61
2017-12-11T01:06:42.022Z,2.77
2017-12-11T01:07:22.615Z,2.65
2017-12-11T01:08:03.226Z,2.69
2017-12-11T01:08:43.841Z,2.71
2017-12-11T01:09:24.416Z,2.72
2017-12-11T01:10:05.028Z,2.71
2017-12-11T01:10:45.632Z,2.74
2017-12-11T01:11:26.253Z,2.71
2017-12-11T01:12:06.809Z,2.77
2017-12-11T01:12:47.381Z,2.72
2017-12-11T01:13:27.953Z,2.8
2017-12-11T01:14:08.551Z,2.79
2017-12-11T01:14:49.146Z,2.92
2017-12-11T01:15:29.741Z,2.8
2017-12-11T01:16:10.308Z,2.8
2017-12-11T01:16:50.901Z,2.82
2017-12-11T01:17:31.484Z,2.82
2017-12-11T01:18:12.079Z,2.86
2017-12-11T01:18:52.693Z,2.86
2017-12-11T01:19:33.265Z,2.86
2017-12-11T01:20:13.832Z,2.92
2017-12-11T01:20:54.396Z,2.86
2017-12-11T01:21:34.963Z,2.89
2017-12-11T01:22:15.548Z,2.86
2017-12-11T01:22:56.114Z,2.93
2017-12-11T01:23:43.498Z,2.89
2017-12-11T01:24:24.089Z,2.95
2017-12-11T01:25:04.678Z,2.92
2017-12-11T01:25:45.251Z,2.95
2017-12-11T01:26:25.842Z,2.98
2017-12-11T01:27:06.404Z,2.98
2017-12-11T01:27:47.029Z,3
2017-12-11T01:28:27.557Z,3.07
2017-12-11T01:29:08.152Z,3.05
2017-12-11T01:29:48.754Z,3.08
2017-12-11T01:30:29.322Z,3.05
2017-12-11T01:31:09.929Z,3.08
2017-12-11T01:31:50.464Z,3.08
2017-12-11T01:32:31.054Z,3.1
2017-12-11T01:33:11.634Z,3.11
2017-12-11T01:33:52.229Z,3.14
2017-12-11T01:34:32.796Z,3.08
2017-12-11T01:35:13.387Z,3.08
2017-12-11T01:35:54.040Z,3.07
2017-12-11T01:36:34.636Z,3.18
2017-12-11T01:37:15.206Z,3.08
2017-12-11T01:37:55.780Z,3.23
2017-12-11T01:38:36.343Z,3.16
2017-12-11T01:39:16.923Z,3.23
2017-12-11T01:39:57.496Z,3.23
2017-12-11T01:40:38.103Z,3.26
2017-12-11T01:41:18.698Z,3.23
2017-12-11T01:41:59.288Z,3.31
2017-12-11T01:42:39.891Z,3.32
2017-12-11T01:43:20.468Z,3.34
2017-12-11T01:44:01.046Z,3.31
2017-12-11T01:44:41.631Z,3.29
2017-12-11T01:45:22.214Z,3.36
2017-12-11T01:46:02.791Z,3.34
2017-12-11T01:46:43.385Z,3.28
2017-12-11T01:47:24.003Z,3.26
2017-12-11T01:48:04.584Z,3.4
2017-12-11T01:48:45.156Z,3.44
2017-12-11T01:49:25.752Z,3.4
2017-12-11T01:50:06.364Z,3.42
2017-12-11T01:50:46.964Z,3.36
2017-12-11T01:51:27.541Z,3.48
2017-12-11T01:52:08.100Z,3.48
2017-12-11T01:52:48.680Z,3.45
2017-12-11T01:53:29.329Z,3.55
2017-12-11T01:54:09.912Z,3.58
2017-12-11T01:54:50.489Z,3.51
2017-12-11T01:55:31.075Z,3.51
2017-12-11T01:56:11.650Z,3.47
2017-12-11T01:56:52.293Z,3.5
2017-12-11T01:57:32.904Z,3.53
2017-12-11T01:58:13.497Z,3.59
2017-12-11T01:58:54.063Z,3.55
2017-12-11T01:59:34.614Z,3.55
2017-12-11T02:00:15.183Z,3.65
2017-12-11T02:00:55.766Z,3.63
2017-12-11T02:01:36.370Z,3.58
2017-12-11T02:02:16.956Z,3.63
2017-12-11T02:02:57.519Z,3.63
2017-12-11T02:03:38.089Z,3.6
2017-12-11T02:04:18.667Z,3.66
2017-12-11T02:04:59.224Z,3.68
2017-12-11T02:05:39.789Z,3.68
2017-12-11T02:06:20.378Z,3.7
2017-12-11T02:07:00.949Z,3.69
2017-12-11T02:07:41.542Z,3.76
2017-12-11T02:08:22.145Z,3.8
2017-12-11T02:09:02.705Z,3.76
2017-12-11T02:09:43.316Z,3.76
2017-12-11T02:10:23.915Z,3.78
2017-12-11T02:11:04.488Z,3.77
2017-12-11T02:11:45.108Z,3.8
2017-12-11T02:12:25.718Z,3.81
2017-12-11T02:13:06.311Z,3.84
2017-12-11T02:13:46.899Z,3.66
2017-12-11T02:14:27.480Z,3.88
2017-12-11T02:15:08.042Z,3.83
2017-12-11T02:15:48.637Z,3.88
2017-12-11T02:16:29.207Z,3.84
2017-12-11T02:17:09.792Z,3.84
2017-12-11T02:17:50.365Z,3.91
2017-12-11T02:18:30.966Z,3.88
2017-12-11T02:19:11.528Z,3.92
2017-12-11T02:19:52.086Z,3.88
2017-12-11T02:20:32.651Z,4.01
2017-12-11T02:21:13.242Z,4.01
2017-12-11T02:21:53.812Z,4.01
2017-12-11T02:22:34.370Z,4.02
2017-12-11T02:23:14.955Z,4.04
2017-12-11T02:23:55.530Z,4.05
2017-12-11T02:24:36.139Z,4.01
2017-12-11T02:25:16.749Z,4.05
2017-12-11T02:25:57.318Z,4.13
2017-12-11T02:26:37.902Z,4.12
2017-12-11T02:27:18.494Z,4.06
2017-12-11T02:27:59.049Z,4.13
2017-12-11T02:28:39.609Z,4.05
2017-12-11T02:29:20.210Z,4.12
2017-12-11T02:30:00.826Z,4.08
2017-12-11T02:30:41.421Z,4.12
2017-12-11T02:31:22.000Z,4.23
2017-12-11T02:32:02.576Z,4.13
2017-12-11T02:32:43.188Z,4.14
2017-12-11T02:33:23.770Z,4.17
2017-12-11T02:34:04.342Z,4.17
2017-12-11T02:34:44.919Z,4.17
2017-12-11T02:35:25.506Z,4.19
2017-12-11T02:36:06.119Z,4.31
2017-12-11T02:36:46.698Z,4.28
2017-12-11T02:37:27.327Z,4.26
2017-12-11T02:38:07.916Z,4.28
2017-12-11T02:38:48.490Z,4.2
2017-12-11T02:39:29.128Z,4.24
2017-12-11T02:40:09.710Z,4.32
2017-12-11T02:40:50.310Z,4.32
2017-12-11T02:41:30.876Z,4.32
2017-12-11T02:42:11.441Z,4.32
2017-12-11T02:42:52.005Z,4.26
2017-12-11T02:43:32.593Z,4.32
2017-12-11T02:44:13.179Z,4.35
2017-12-11T02:44:53.789Z,4.31
2017-12-11T02:45:34.383Z,4.38
2017-12-11T02:46:15.008Z,4.38
2017-12-11T02:46:55.617Z,4.4
2017-12-11T02:47:36.244Z,4.34
2017-12-11T02:48:16.819Z,4.45
2017-12-11T02:48:57.389Z,4.48
2017-12-11T02:49:37.988Z,4.42
2017-12-11T02:50:18.575Z,4.42
2017-12-11T02:50:59.179Z,4.44
2017-12-11T02:51:39.827Z,4.42
2017-12-11T02:52:20.412Z,4.42
2017-12-11T02:53:01.030Z,4.37
2017-12-11T02:53:41.590Z,4.48
2017-12-11T02:54:22.169Z,4.49
2017-12-11T02:55:02.797Z,4.48
2017-12-11T02:55:43.390Z,4.44
2017-12-11T02:56:23.995Z,4.44
2017-12-11T02:57:04.566Z,4.49
2017-12-11T02:57:45.120Z,4.55
2017-12-11T02:58:25.715Z,4.42
2017-12-11T02:59:06.284Z,4.41
2017-12-11T02:59:46.842Z,4.55
2017-12-11T03:00:27.436Z,4.5
2017-12-11T03:01:08.019Z,4.56
2017-12-11T03:01:48.600Z,4.45
2017-12-11T03:02:29.172Z,4.55
2017-12-11T03:03:09.780Z,4.55
2017-12-11T03:03:50.358Z,4.5
2017-12-11T03:04:30.957Z,4.55
2017-12-11T03:05:11.523Z,4.52
2017-12-11T03:05:52.135Z,4.58
2017-12-11T03:06:32.701Z,4.5
2017-12-11T03:07:13.306Z,4.53
2017-12-11T03:07:53.883Z,4.5
2017-12-11T03:08:34.458Z,4.58
2017-12-11T03:09:15.058Z,4.52
2017-12-11T03:09:55.631Z,4.53
2017-12-11T03:10:36.192Z,4.6
2017-12-11T03:11:16.744Z,4.53
2017-12-11T03:11:57.333Z,4.53
2017-12-11T03:12:37.916Z,4.55
2017-12-11T03:13:18.486Z,4.58
2017-12-11T03:13:59.040Z,4.53
2017-12-11T03:14:39.632Z,4.58
2017-12-11T03:15:20.204Z,4.66
2017-12-11T03:16:00.794Z,4.59
2017-12-11T03:16:41.364Z,4.62
2017-12-11T03:17:21.937Z,4.59
2017-12-11T03:18:02.507Z,4.58
2017-12-11T03:18:43.063Z,4.53
2017-12-11T03:19:23.627Z,4.68
2017-12-11T03:20:04.211Z,4.67
2017-12-11T03:20:44.799Z,4.6
2017-12-11T03:21:25.405Z,4.7
2017-12-11T03:22:05.984Z,4.63
2017-12-11T03:22:46.571Z,4.62
2017-12-11T03:23:27.164Z,4.66
2017-12-11T03:24:07.768Z,4.68
2017-12-11T03:24:48.361Z,4.68
2017-12-11T03:25:28.921Z,4.6
2017-12-11T03:26:09.504Z,4.68
2017-12-11T03:26:50.076Z,4.59
2017-12-11T03:27:30.649Z,4.63
2017-12-11T03:28:11.212Z,4.67
2017-12-11T03:28:51.777Z,4.67
2017-12-11T03:29:32.353Z,4.73
2017-12-11T03:30:12.919Z,4.59
2017-12-11T03:30:53.508Z,4.58
2017-12-11T03:31:34.062Z,4.63
2017-12-11T03:32:14.622Z,4.66
2017-12-11T03:32:55.199Z,4.63
2017-12-11T03:33:35.780Z,4.71
2017-12-11T03:34:16.350Z,4.7
2017-12-11T03:34:56.917Z,4.67
2017-12-11T03:35:37.492Z,4.67
2017-12-11T03:36:18.058Z,4.67
2017-12-11T03:36:58.639Z,4.71
2017-12-11T03:37:39.268Z,4.71
2017-12-11T03:38:19.886Z,4.7
2017-12-11T03:39:00.482Z,4.74
2017-12-11T03:39:41.048Z,4.75
2017-12-11T03:40:21.683Z,4.74
2017-12-11T03:41:02.241Z,4.84
2017-12-11T03:41:42.840Z,4.77
2017-12-11T03:42:23.424Z,4.71
2017-12-11T03:43:04.004Z,4.73
2017-12-11T03:43:44.562Z,4.75
2017-12-11T03:44:25.134Z,4.75
2017-12-11T03:45:05.713Z,4.78
2017-12-11T03:45:46.285Z,4.78
2017-12-11T03:46:26.869Z,4.75
2017-12-11T03:47:07.445Z,4.68
2017-12-11T03:47:48.056Z,4.74
2017-12-11T03:48:28.632Z,4.82
2017-12-11T03:49:09.201Z,4.78
2017-12-11T03:49:49.765Z,4.71
2017-12-11T03:50:30.339Z,4.74
2017-12-11T03:51:10.953Z,4.78
2017-12-11T03:51:51.517Z,4.78
2017-12-11T03:52:32.095Z,4.78
2017-12-11T03:53:12.683Z,4.75
2017-12-11T03:53:53.236Z,4.74
2017-12-11T03:54:33.805Z,4.77
2017-12-11T03:55:14.405Z,4.75
2017-12-11T03:55:54.998Z,4.74
2017-12-11T03:56:35.568Z,4.78
2017-12-11T03:57:16.134Z,4.8
2017-12-11T03:57:56.713Z,4.75
2017-12-11T03:58:37.279Z,4.8
2017-12-11T03:59:17.869Z,4.84
2017-12-11T03:59:58.472Z,4.8
2017-12-11T04:00:39.048Z,4.74
2017-12-11T04:01:19.617Z,4.75
2017-12-11T04:02:00.203Z,4.74
2017-12-11T04:02:40.787Z,4.78
2017-12-11T04:03:21.364Z,4.74
2017-12-11T04:04:01.940Z,4.74
2017-12-11T04:04:42.536Z,4.8
2017-12-11T04:05:23.128Z,4.77
2017-12-11T04:06:03.693Z,4.84
2017-12-11T04:06:44.280Z,4.77
2017-12-11T04:07:24.851Z,4.74
2017-12-11T04:08:05.466Z,4.78
2017-12-11T04:08:46.016Z,4.82
2017-12-11T04:09:26.621Z,4.77
2017-12-11T04:10:07.189Z,4.78
2017-12-11T04:10:47.775Z,4.82
2017-12-11T04:11:28.388Z,4.8
2017-12-11T04:12:08.966Z,4.77
2017-12-11T04:12:49.561Z,4.78
2017-12-11T04:13:30.135Z,4.78
2017-12-11T04:14:10.700Z,4.77
2017-12-11T04:14:51.327Z,4.75
2017-12-11T04:15:31.891Z,4.78
2017-12-11T04:16:12.630Z,4.82
2017-12-11T04:16:53.237Z,4.74
2017-12-11T04:17:33.880Z,4.78
2017-12-11T04:18:14.455Z,4.77
2017-12-11T04:18:55.038Z,4.75
2017-12-11T04:19:35.633Z,4.77
2017-12-11T04:20:16.210Z,4.75
2017-12-11T04:20:56.793Z,4.74
2017-12-11T04:21:37.405Z,4.77
2017-12-11T04:22:17.971Z,4.74
2017-12-11T04:22:58.562Z,4.73
2017-12-11T04:23:39.120Z,4.75
2017-12-11T04:24:19.701Z,4.73
2017-12-11T04:25:00.292Z,4.86
2017-12-11T04:25:40.875Z,4.77
2017-12-11T04:26:21.441Z,4.75
2017-12-11T04:27:02.056Z,4.75
2017-12-11T04:27:42.724Z,4.7
2017-12-11T04:28:23.283Z,4.71
2017-12-11T04:29:03.846Z,4.78
2017-12-11T04:29:44.426Z,4.75
2017-12-11T04:30:24.993Z,4.75
2017-12-11T04:31:05.571Z,4.75
2017-12-11T04:31:46.135Z,4.77
2017-12-11T04:32:26.744Z,4.8
2017-12-11T04:33:07.329Z,4.8
2017-12-11T04:33:47.921Z,4.74
2017-12-11T04:34:28.545Z,4.77
2017-12-11T04:35:09.124Z,4.77
2017-12-11T04:35:49.739Z,4.75
2017-12-11T04:36:30.310Z,4.74
2017-12-11T04:37:10.879Z,4.77
2017-12-11T04:37:51.453Z,4.8
2017-12-11T04:38:32.053Z,4.8
2017-12-11T04:39:12.661Z,4.77
2017-12-11T04:39:53.251Z,4.84
2017-12-11T04:40:33.840Z,4.82
2017-12-11T04:41:14.421Z,4.75
2017-12-11T04:41:54.988Z,4.75
2017-12-11T04:42:35.590Z,4.84
2017-12-11T04:43:16.152Z,4.75
2017-12-11T04:43:56.764Z,4.77
2017-12-11T04:44:37.342Z,4.8
2017-12-11T04:45:17.933Z,4.75
2017-12-11T04:45:58.523Z,4.78
2017-12-11T04:46:39.101Z,4.78
2017-12-11T04:47:19.676Z,4.78
2017-12-11T04:48:00.267Z,4.74
2017-12-11T04:48:40.827Z,4.77
2017-12-11T04:49:21.395Z,4.75
2017-12-11T04:50:02.026Z,4.74
2017-12-11T04:50:42.604Z,4.8
2017-12-11T04:51:23.189Z,4.74
2017-12-11T04:52:03.758Z,4.8
2017-12-11T04:52:44.349Z,4.74
2017-12-11T04:53:24.922Z,4.78
2017-12-11T04:54:05.539Z,4.77
2017-12-11T04:54:46.147Z,4.74
2017-12-11T04:55:26.705Z,4.77
2017-12-11T04:56:07.280Z,4.77
2017-12-11T04:56:47.878Z,4.74
2017-12-11T04:57:28.459Z,4.73
2017-12-11T04:58:09.030Z,4.84
2017-12-11T04:58:49.613Z,4.74
2017-12-11T04:59:30.196Z,4.71
2017-12-11T05:00:10.776Z,4.7
2017-12-11T05:00:51.348Z,4.77
2017-12-11T05:01:31.925Z,4.73
2017-12-11T05:02:12.544Z,4.77
2017-12-11T05:02:53.125Z,4.74
2017-12-11T05:03:33.701Z,4.74
2017-12-11T05:04:14.344Z,4.75
2017-12-11T05:04:54.923Z,4.75
2017-12-11T05:05:35.497Z,4.75
2017-12-11T05:06:16.084Z,4.7
2017-12-11T05:06:56.697Z,4.71
2017-12-11T05:07:37.240Z,4.73
2017-12-11T05:08:17.825Z,4.71
2017-12-11T05:08:58.388Z,4.74
2017-12-11T05:09:38.961Z,4.73
2017-12-11T05:10:19.538Z,4.73
2017-12-11T05:11:00.115Z,4.7
2017-12-11T05:11:40.699Z,4.73
2017-12-11T05:12:21.317Z,4.68
2017-12-11T05:13:01.916Z,4.71
2017-12-11T05:13:42.517Z,4.71
2017-12-11T05:14:23.083Z,4.7
2017-12-11T05:15:03.664Z,4.73
2017-12-11T05:15:44.247Z,4.7
2017-12-11T05:16:24.821Z,4.73
2017-12-11T05:17:05.437Z,4.7
2017-12-11T05:17:46.067Z,4.74
2017-12-11T05:18:26.665Z,4.74
2017-12-11T05:19:07.229Z,4.7
2017-12-11T05:19:47.800Z,4.7
2017-12-11T05:20:28.423Z,4.73
2017-12-11T05:21:09.035Z,4.71
2017-12-11T05:21:49.638Z,4.63
2017-12-11T05:22:30.206Z,4.66
2017-12-11T05:23:10.793Z,4.67
2017-12-11T05:23:51.367Z,4.7
2017-12-11T05:24:32.197Z,4.74
2017-12-11T05:25:13.001Z,4.74
2017-12-11T05:25:53.570Z,4.73
2017-12-11T05:26:34.138Z,4.71
2017-12-11T05:27:14.728Z,4.68
2017-12-11T05:27:55.300Z,4.7
2017-12-11T05:28:35.843Z,4.7
2017-12-11T05:29:16.438Z,4.7
2017-12-11T05:29:56.990Z,4.68
2017-12-11T05:30:37.569Z,4.7
2017-12-11T05:31:18.200Z,4.7
2017-12-11T05:31:58.789Z,4.59
2017-12-11T05:32:39.367Z,4.59
2017-12-11T05:33:19.938Z,4.59
2017-12-11T05:34:00.664Z,4.6
2017-12-11T05:34:41.190Z,4.74
2017-12-11T05:35:21.758Z,4.68
2017-12-11T05:36:02.322Z,4.58
2017-12-11T05:36:42.889Z,4.66
2017-12-11T05:37:23.448Z,4.63
2017-12-11T05:38:04.033Z,4.6
2017-12-11T05:38:44.634Z,4.58
2017-12-11T05:39:25.262Z,4.63
2017-12-11T05:40:05.775Z,4.58
2017-12-11T05:40:46.361Z,4.7
2017-12-11T05:41:26.952Z,4.67
2017-12-11T05:42:07.512Z,4.7
2017-12-11T05:42:48.109Z,4.6
2017-12-11T05:43:28.658Z,4.63
2017-12-11T05:44:09.226Z,4.63
2017-12-11T05:44:49.778Z,4.59
2017-12-11T05:45:30.355Z,4.67
2017-12-11T05:46:10.934Z,4.67
2017-12-11T05:46:51.515Z,4.66
2017-12-11T05:47:32.071Z,4.59
2017-12-11T05:48:12.639Z,4.68
2017-12-11T05:48:53.292Z,4.59
2017-12-11T05:49:33.870Z,4.67
2017-12-11T05:50:14.432Z,4.63
2017-12-11T05:50:55.005Z,4.68
2017-12-11T05:51:35.580Z,4.62
2017-12-11T05:52:16.188Z,4.67
2017-12-11T05:52:56.779Z,4.67
2017-12-11T05:53:37.357Z,4.73
2017-12-11T05:54:17.930Z,4.68
2017-12-11T05:54:58.500Z,4.7
2017-12-11T05:55:39.107Z,4.67
2017-12-11T05:56:19.720Z,4.71
2017-12-11T05:57:00.299Z,4.74
2017-12-11T05:57:40.886Z,4.73
2017-12-11T05:58:21.502Z,4.74
2017-12-11T05:59:02.096Z,4.67
2017-12-11T05:59:42.689Z,4.77
2017-12-11T06:00:23.280Z,4.73
2017-12-11T06:01:03.876Z,4.73
2017-12-11T06:01:44.438Z,4.75
2017-12-11T06:02:25.020Z,4.74
2017-12-11T06:03:05.601Z,4.74
2017-12-11T06:03:46.160Z,4.68
2017-12-11T06:04:26.760Z,4.68
2017-12-11T06:05:07.338Z,4.7
2017-12-11T06:05:47.924Z,4.68
2017-12-11T06:06:28.535Z,4.7
2017-12-11T06:07:09.130Z,4.68
2017-12-11T06:07:49.695Z,4.62
2017-12-11T06:08:30.302Z,4.63
2017-12-11T06:09:10.883Z,4.7
2017-12-11T06:09:51.457Z,4.67
2017-12-11T06:10:32.044Z,4.63
2017-12-11T06:11:12.635Z,4.68
2017-12-11T06:11:53.198Z,4.6
2017-12-11T06:12:33.801Z,4.62
2017-12-11T06:13:14.395Z,4.63
2017-12-11T06:13:54.982Z,4.63
2017-12-11T06:14:35.582Z,4.63
2017-12-11T06:15:16.160Z,4.71
2017-12-11T06:15:56.732Z,4.62
2017-12-11T06:16:37.310Z,4.6
2017-12-11T06:17:17.884Z,4.59
2017-12-11T06:17:58.465Z,4.67
2017-12-11T06:18:39.040Z,4.63
2017-12-11T06:19:19.611Z,4.6
2017-12-11T06:20:00.171Z,4.59
2017-12-11T06:20:40.738Z,4.74
2017-12-11T06:21:21.290Z,4.97
2017-12-11T06:22:01.865Z,5.18
2017-12-11T06:22:42.462Z,5.43
2017-12-11T06:23:23.042Z,5.69
2017-12-11T06:24:03.642Z,5.93
2017-12-11T06:24:44.233Z,6.14
2017-12-11T06:25:24.825Z,6.28
2017-12-11T06:26:05.395Z,6.45
2017-12-11T06:26:45.963Z,6.72
2017-12-11T06:27:26.554Z,6.75
2017-12-11T06:28:07.130Z,6.82
2017-12-11T06:28:47.697Z,6.96
2017-12-11T06:29:28.271Z,7.07
2017-12-11T06:30:08.852Z,7.2
2017-12-11T06:30:49.437Z,7.29
2017-12-11T06:31:30.077Z,7.43
2017-12-11T06:32:10.688Z,7.54
2017-12-11T06:32:51.274Z,7.66
2017-12-11T06:33:31.840Z,7.73
2017-12-11T06:34:12.405Z,7.8
2017-12-11T06:34:53.003Z,7.8
2017-12-11T06:35:33.567Z,7.98
2017-12-11T06:36:14.152Z,8.08
2017-12-11T06:36:54.716Z,8.16
2017-12-11T06:37:35.290Z,8.12
2017-12-11T06:38:15.856Z,8.1
2017-12-11T06:38:56.426Z,8.19
2017-12-11T06:39:37.014Z,8.16
2017-12-11T06:40:17.604Z,8.15
2017-12-11T06:40:58.166Z,8.18
2017-12-11T06:41:38.760Z,8.05
2017-12-11T06:42:19.349Z,8.18
2017-12-11T06:42:59.937Z,8.09
2017-12-11T06:43:40.527Z,8.16
2017-12-11T06:44:21.136Z,8.12
2017-12-11T06:45:01.724Z,8.2
2017-12-11T06:45:42.291Z,8.23
2017-12-11T06:46:22.854Z,8.33
2017-12-11T06:47:03.506Z,8.33
2017-12-11T06:47:44.177Z,8.24
2017-12-11T06:48:24.770Z,8.12
2017-12-11T06:49:05.365Z,8
2017-12-11T06:49:45.939Z,7.87
2017-12-11T06:50:26.847Z,7.72
2017-12-11T06:51:07.440Z,7.53
2017-12-11T06:51:48.013Z,7.43
2017-12-11T06:52:28.591Z,7.31
2017-12-11T06:53:09.428Z,7.05
2017-12-11T06:53:50.260Z,7.02
2017-12-11T06:54:31.036Z,6.79
2017-12-11T06:55:11.636Z,6.67
2017-12-11T06:55:52.277Z,6.6
2017-12-11T06:56:32.912Z,6.44
2017-12-11T06:57:13.521Z,6.33
2017-12-11T06:57:54.098Z,6.2
2017-12-11T06:58:35.004Z,6.2
2017-12-11T06:59:15.844Z,6.05
2017-12-11T06:59:56.414Z,6.01
2017-12-11T07:00:37.005Z,5.94
2017-12-11T07:01:17.596Z,5.83
2017-12-11T07:01:58.194Z,5.76
2017-12-11T07:02:38.914Z,5.71
2017-12-11T07:03:19.498Z,5.57
2017-12-11T07:04:00.062Z,5.51
2017-12-11T07:04:40.723Z,5.47
2017-12-11T07:05:21.323Z,5.44
2017-12-11T07:06:01.963Z,5.46
2017-12-11T07:06:42.577Z,5.43
2017-12-11T07:07:23.159Z,5.35
2017-12-11T07:08:03.761Z,5.33
2017-12-11T07:08:44.338Z,5.28
2017-12-11T07:09:24.943Z,5.25
2017-12-11T07:10:05.554Z,5.18
2017-12-11T07:10:46.357Z,5.29
2017-12-11T07:11:27.090Z,5.08
2017-12-11T07:12:07.683Z,5.05
2017-12-11T07:12:48.273Z,5.08
2017-12-11T07:13:28.868Z,5.05
2017-12-11T07:14:09.409Z,5.12
2017-12-11T07:14:50.063Z,4.97
2017-12-11T07:15:30.670Z,5
2017-12-11T07:16:11.260Z,4.96
2017-12-11T07:16:51.883Z,4.96
2017-12-11T07:17:32.476Z,4.87
2017-12-11T07:18:13.064Z,4.96
2017-12-11T07:18:53.678Z,4.87
2017-12-11T07:19:34.300Z,4.8
2017-12-11T07:20:14.881Z,4.8
2017-12-11T07:20:55.520Z,4.73
2017-12-11T07:21:36.109Z,4.74
2017-12-11T07:22:16.731Z,4.71
2017-12-11T07:22:57.307Z,4.73
2017-12-11T07:23:37.905Z,4.75
2017-12-11T07:24:18.480Z,4.7
2017-12-11T07:24:59.085Z,4.67
2017-12-11T07:25:39.673Z,4.68
2017-12-11T07:26:20.272Z,4.68
2017-12-11T07:27:00.845Z,4.68
2017-12-11T07:27:41.529Z,4.6
2017-12-11T07:28:22.097Z,4.62
2017-12-11T07:29:02.684Z,4.55
2017-12-11T07:29:43.280Z,4.53
2017-12-11T07:30:23.871Z,4.49
2017-12-11T07:31:04.636Z,4.58
2017-12-11T07:31:45.225Z,4.55
2017-12-11T07:32:25.833Z,4.55
2017-12-11T07:33:06.407Z,4.49
2017-12-11T07:33:47.016Z,4.62
2017-12-11T07:34:27.592Z,4.53
2017-12-11T07:35:08.196Z,4.67
2017-12-11T07:35:48.789Z,4.63
2017-12-11T07:36:29.397Z,4.63
2017-12-11T07:37:10.003Z,4.59
2017-12-11T07:37:50.592Z,4.59
2017-12-11T07:38:31.183Z,4.7
2017-12-11T07:39:11.779Z,4.55
2017-12-11T07:39:52.359Z,4.59
2017-12-11T07:40:33.087Z,4.6
2017-12-11T07:41:13.658Z,4.6
2017-12-11T07:41:54.282Z,4.6
2017-12-11T07:42:34.840Z,4.67
2017-12-11T07:43:15.423Z,4.63
2017-12-11T07:43:56.010Z,4.63
2017-12-11T07:44:36.601Z,4.58
2017-12-11T07:45:17.252Z,4.71
2017-12-11T07:45:57.854Z,4.67
2017-12-11T07:46:38.420Z,4.6
2017-12-11T07:47:19.014Z,4.68
2017-12-11T07:47:59.586Z,4.56
2017-12-11T07:48:40.180Z,4.63
2017-12-11T07:49:20.773Z,4.67
2017-12-11T07:50:01.362Z,4.7
2017-12-11T07:50:41.940Z,4.6
2017-12-11T07:51:22.499Z,4.62
2017-12-11T07:52:03.096Z,4.52
2017-12-11T07:52:43.785Z,4.52
2017-12-11T07:53:24.372Z,4.59
2017-12-11T07:54:04.967Z,4.44
2017-12-11T07:54:45.586Z,4.49
2017-12-11T07:55:26.224Z,4.45
2017-12-11T07:56:06.804Z,4.44
2017-12-11T07:56:47.385Z,4.48
2017-12-11T07:57:27.946Z,4.52
2017-12-11T07:58:08.529Z,4.42
2017-12-11T07:58:49.102Z,4.53
2017-12-11T07:59:29.713Z,4.49
2017-12-11T08:00:10.305Z,4.52
2017-12-11T08:00:50.896Z,4.52
2017-12-11T08:01:31.491Z,4.49
2017-12-11T08:02:12.070Z,4.49
2017-12-11T08:02:52.670Z,4.55
2017-12-11T08:03:33.268Z,4.5
2017-12-11T08:04:13.855Z,4.56
2017-12-11T08:04:54.577Z,4.56
2017-12-11T08:05:35.152Z,4.49
2017-12-11T08:06:15.739Z,4.49
2017-12-11T08:06:56.304Z,4.52
2017-12-11T08:07:36.882Z,4.44
2017-12-11T08:08:17.449Z,4.45
2017-12-11T08:08:58.020Z,4.48
2017-12-11T08:09:38.593Z,4.48
2017-12-11T08:10:19.162Z,4.56
2017-12-11T08:10:59.750Z,4.56
2017-12-11T08:11:40.323Z,4.44
2017-12-11T08:12:20.953Z,4.42
2017-12-11T08:13:01.524Z,4.41
2017-12-11T08:13:42.117Z,4.53
2017-12-11T08:14:22.698Z,4.48
2017-12-11T08:15:03.286Z,4.45
2017-12-11T08:15:43.904Z,4.42
2017-12-11T08:16:24.472Z,4.44
2017-12-11T08:17:05.048Z,4.41
2017-12-11T08:17:45.672Z,4.37
2017-12-11T08:18:26.255Z,4.4
2017-12-11T08:19:07.105Z,4.55
2017-12-11T08:19:47.689Z,4.42
2017-12-11T08:20:28.281Z,4.48
2017-12-11T08:21:08.891Z,4.48
2017-12-11T08:21:49.473Z,4.55
2017-12-11T08:22:30.060Z,4.52
2017-12-11T08:23:10.650Z,4.56
2017-12-11T08:23:51.247Z,4.52
2017-12-11T08:24:31.861Z,4.56
2017-12-11T08:25:12.449Z,4.56
2017-12-11T08:25:53.024Z,4.52
2017-12-11T08:26:33.607Z,4.52
2017-12-11T08:27:14.181Z,4.49
2017-12-11T08:27:54.752Z,4.53
2017-12-11T08:28:35.322Z,4.49
2017-12-11T08:29:15.922Z,4.53
2017-12-11T08:29:56.490Z,4.55
2017-12-11T08:30:37.069Z,4.53
2017-12-11T08:31:17.671Z,4.53
2017-12-11T08:31:58.288Z,4.53
2017-12-11T08:32:38.847Z,4.59
2017-12-11T08:33:19.432Z,4.55
2017-12-11T08:34:00.014Z,4.58
2017-12-11T08:34:40.599Z,4.5
2017-12-11T08:35:21.187Z,4.53
2017-12-11T08:36:01.783Z,4.59
2017-12-11T08:36:42.363Z,4.42
2017-12-11T08:37:22.933Z,4.5
2017-12-11T08:38:03.516Z,4.41
2017-12-11T08:38:44.128Z,4.42
2017-12-11T08:39:24.826Z,4.35
2017-12-11T08:40:05.392Z,4.31
2017-12-11T08:40:46.007Z,4.31
2017-12-11T08:41:26.601Z,4.2
2017-12-11T08:42:07.189Z,4.3
2017-12-11T08:42:47.812Z,4.22
2017-12-11T08:43:28.390Z,4.31
2017-12-11T08:44:08.998Z,4.22
2017-12-11T08:44:49.583Z,4.31
2017-12-11T08:45:30.163Z,4.32
2017-12-11T08:46:10.743Z,4.38
2017-12-11T08:46:51.356Z,4.38
2017-12-11T08:47:31.908Z,4.41
2017-12-11T08:48:12.520Z,4.41
2017-12-11T08:48:53.104Z,4.31
2017-12-11T08:49:33.691Z,4.41
2017-12-11T08:50:14.293Z,4.45
2017-12-11T08:50:54.963Z,4.5
2017-12-11T08:51:35.561Z,4.42
2017-12-11T08:52:16.147Z,4.41
2017-12-11T08:52:56.755Z,4.5
2017-12-11T08:53:37.401Z,4.52
2017-12-11T08:54:17.995Z,4.55
2017-12-11T08:54:58.605Z,4.56
2017-12-11T08:55:39.217Z,4.5
2017-12-11T08:56:19.795Z,4.5
2017-12-11T08:57:00.389Z,4.49
2017-12-11T08:57:40.975Z,4.6
2017-12-11T08:58:21.575Z,4.53
2017-12-11T08:59:02.165Z,4.55
2017-12-11T08:59:42.780Z,4.53
2017-12-11T09:00:23.362Z,4.53
2017-12-11T09:01:03.993Z,4.53
2017-12-11T09:01:44.605Z,4.55
2017-12-11T09:02:25.188Z,4.52
2017-12-11T09:03:05.780Z,4.52
2017-12-11T09:03:46.352Z,4.58
2017-12-11T09:04:26.936Z,4.55